DLH783 KJFK-EDDF
Flight info
| Callsign | DLH783 |
|---|---|
| Flight time | N/A |
| Altitude | 37000 |
| Route | BETTE DCT ACK DCT KANNI N97B SUPRY/M081F390 DCT 46N050W 48N040W 50N030W 52N020W DCT LIMRI DCT XETBO/N0470F410 DCT ENJEX DCT ADHAV DCT AGCAT DCT AXNEF DCT ZIPWE DCT OZZIL DCT SAWPE Q63 CPT UL9 BIG L607 KONAN DCT KOK DCT SPI T180 NIVNU T847 IMCOM IMCOM1A |
| Aircraft | A343/H-SDE2E3FGHIJ4J5M1RWXY/LB1D1 |
Departure
| Time | N/A |
|---|---|
| Airport | John F. Kennedy International Airport (KJFK) |
Arrival
| Time | 2026-05-05 15:12 |
|---|---|
| Airport | Frankfurt Main Airport (EDDF) |
| Time | Latitude | Longitude | Altitude | Speed | Heading |
|---|---|---|---|---|---|
| 2026-05-05 14:49 | 50.33665 | 6.80198 | 35901 ft | 424 kts | 125° |
| 2026-05-05 14:50 | 50.32465 | 6.84517 | 35082 ft | 442 kts | 108° |
| 2026-05-05 14:50 | 50.31914 | 6.89315 | 34222 ft | 452 kts | 104° |
| 2026-05-05 14:50 | 50.30948 | 6.93996 | 33222 ft | 455 kts | 115° |
| 2026-05-05 14:50 | 50.29814 | 6.98662 | 32260 ft | 462 kts | 116° |
| 2026-05-05 14:51 | 50.28499 | 7.03270 | 31320 ft | 467 kts | 120° |
| 2026-05-05 14:51 | 50.27083 | 7.07879 | 30340 ft | 474 kts | 120° |
| 2026-05-05 14:51 | 50.25626 | 7.12612 | 29199 ft | 481 kts | 120° |
| 2026-05-05 14:51 | 50.24193 | 7.17294 | 28186 ft | 486 kts | 120° |
| 2026-05-05 14:52 | 50.22723 | 7.22125 | 27278 ft | 485 kts | 119° |
| 2026-05-05 14:52 | 50.21302 | 7.26809 | 26527 ft | 483 kts | 119° |
| 2026-05-05 14:52 | 50.19867 | 7.31539 | 25721 ft | 482 kts | 119° |
| 2026-05-05 14:52 | 50.18501 | 7.36298 | 24979 ft | 480 kts | 114° |
| 2026-05-05 14:53 | 50.17346 | 7.41175 | 24258 ft | 477 kts | 112° |
| 2026-05-05 14:53 | 50.16221 | 7.46091 | 23652 ft | 472 kts | 112° |
| 2026-05-05 14:53 | 50.15127 | 7.50817 | 22990 ft | 466 kts | 112° |
| 2026-05-05 14:53 | 50.14017 | 7.55541 | 22255 ft | 462 kts | 112° |
| 2026-05-05 14:54 | 50.12908 | 7.60213 | 21545 ft | 457 kts | 112° |
| 2026-05-05 14:54 | 50.11800 | 7.64834 | 20871 ft | 452 kts | 113° |
| 2026-05-05 14:54 | 50.10529 | 7.69277 | 20185 ft | 445 kts | 122° |
| 2026-05-05 14:54 | 50.08908 | 7.73344 | 19556 ft | 438 kts | 127° |
| 2026-05-05 14:55 | 50.07214 | 7.77246 | 18911 ft | 433 kts | 127° |
| 2026-05-05 14:55 | 50.05524 | 7.81102 | 18281 ft | 430 kts | 127° |
| 2026-05-05 14:55 | 50.03844 | 7.84925 | 17572 ft | 426 kts | 127° |
| 2026-05-05 14:55 | 50.02175 | 7.88709 | 16874 ft | 422 kts | 127° |
| 2026-05-05 14:56 | 50.00666 | 7.92602 | 16176 ft | 422 kts | 117° |
| 2026-05-05 14:56 | 49.99847 | 7.96969 | 15534 ft | 423 kts | 100° |
| 2026-05-05 14:56 | 49.99858 | 8.01516 | 14963 ft | 421 kts | 82° |
| 2026-05-05 14:56 | 50.00709 | 8.05783 | 14604 ft | 406 kts | 65° |
| 2026-05-05 14:57 | 50.01967 | 8.09553 | 14159 ft | 378 kts | 63° |
| 2026-05-05 14:57 | 50.03132 | 8.13058 | 13638 ft | 352 kts | 64° |
| 2026-05-05 14:57 | 50.04154 | 8.16398 | 12936 ft | 334 kts | 66° |
| 2026-05-05 14:57 | 50.05069 | 8.19638 | 12138 ft | 325 kts | 68° |
| 2026-05-05 14:58 | 50.05924 | 8.22850 | 11349 ft | 317 kts | 69° |
| 2026-05-05 14:58 | 50.06728 | 8.25991 | 10799 ft | 304 kts | 70° |
| 2026-05-05 14:58 | 50.07490 | 8.29029 | 10104 ft | 302 kts | 70° |
| 2026-05-05 14:58 | 50.08233 | 8.32049 | 9944 ft | 306 kts | 71° |
| 2026-05-05 14:59 | 50.08979 | 8.35108 | 9835 ft | 299 kts | 71° |
| 2026-05-05 14:59 | 50.09719 | 8.38153 | 9731 ft | 302 kts | 71° |
| 2026-05-05 14:59 | 50.10460 | 8.41210 | 9664 ft | 301 kts | 71° |
| 2026-05-05 14:59 | 50.11191 | 8.44253 | 9529 ft | 300 kts | 71° |
| 2026-05-05 15:00 | 50.11919 | 8.47298 | 9440 ft | 299 kts | 71° |
| 2026-05-05 15:00 | 50.12410 | 8.49349 | 9363 ft | 299 kts | 71° |
| 2026-05-05 15:00 | 50.13371 | 8.53372 | 9234 ft | 297 kts | 71° |
| 2026-05-05 15:00 | 50.14094 | 8.56399 | 9153 ft | 299 kts | 71° |
| 2026-05-05 15:01 | 50.14814 | 8.59422 | 9053 ft | 297 kts | 71° |
| 2026-05-05 15:01 | 50.15534 | 8.62449 | 8953 ft | 298 kts | 71° |
| 2026-05-05 15:01 | 50.16252 | 8.65468 | 8859 ft | 296 kts | 71° |
| 2026-05-05 15:01 | 50.16969 | 8.68488 | 8788 ft | 297 kts | 71° |
| 2026-05-05 15:02 | 50.17672 | 8.71434 | 8667 ft | 295 kts | 71° |
| 2026-05-05 15:02 | 50.18376 | 8.74405 | 8605 ft | 296 kts | 71° |
| 2026-05-05 15:02 | 50.19086 | 8.77407 | 8526 ft | 292 kts | 71° |
| 2026-05-05 15:02 | 50.19780 | 8.80335 | 8406 ft | 283 kts | 71° |
| 2026-05-05 15:03 | 50.20452 | 8.83175 | 8288 ft | 274 kts | 71° |
| 2026-05-05 15:03 | 50.21103 | 8.85923 | 8204 ft | 265 kts | 72° |
| 2026-05-05 15:03 | 50.21733 | 8.88582 | 8099 ft | 258 kts | 72° |
| 2026-05-05 15:03 | 50.22346 | 8.91199 | 7839 ft | 257 kts | 73° |
| 2026-05-05 15:04 | 50.22657 | 8.93933 | 7523 ft | 255 kts | 95° |
| 2026-05-05 15:04 | 50.22184 | 8.96520 | 7269 ft | 246 kts | 126° |
| 2026-05-05 15:04 | 50.20999 | 8.98302 | 7121 ft | 232 kts | 154° |
| 2026-05-05 15:04 | 50.19498 | 8.98983 | 7000 ft | 222 kts | 180° |
| 2026-05-05 15:05 | 50.16732 | 8.97483 | 6685 ft | 210 kts | 209° |
| 2026-05-05 15:05 | 50.15399 | 8.96578 | 6479 ft | 208 kts | 200° |
| 2026-05-05 15:05 | 50.14267 | 8.95273 | 6289 ft | 206 kts | 237° |
| 2026-05-05 15:06 | 50.13806 | 8.93195 | 6167 ft | 200 kts | 254° |
| 2026-05-05 15:06 | 50.13484 | 8.91121 | 5876 ft | 196 kts | 252° |
| 2026-05-05 15:06 | 50.13081 | 8.89084 | 5434 ft | 197 kts | 249° |
| 2026-05-05 15:06 | 50.12616 | 8.87086 | 4971 ft | 196 kts | 247° |
| 2026-05-05 15:07 | 50.12136 | 8.85084 | 4606 ft | 198 kts | 248° |
| 2026-05-05 15:07 | 50.11664 | 8.83098 | 4296 ft | 191 kts | 248° |
| 2026-05-05 15:07 | 50.11207 | 8.81176 | 4044 ft | 189 kts | 248° |
| 2026-05-05 15:07 | 50.10751 | 8.79264 | 3831 ft | 188 kts | 248° |
| 2026-05-05 15:08 | 50.10302 | 8.77378 | 3591 ft | 188 kts | 248° |
| 2026-05-05 15:08 | 50.09848 | 8.75472 | 3345 ft | 188 kts | 249° |
| 2026-05-05 15:08 | 50.09393 | 8.73565 | 3096 ft | 188 kts | 249° |
| 2026-05-05 15:08 | 50.08940 | 8.71666 | 2837 ft | 185 kts | 249° |
| 2026-05-05 15:09 | 50.08507 | 8.69849 | 2592 ft | 173 kts | 249° |
| 2026-05-05 15:09 | 50.08099 | 8.68134 | 2372 ft | 167 kts | 249° |
| 2026-05-05 15:09 | 50.07697 | 8.66446 | 2161 ft | 167 kts | 249° |
| 2026-05-05 15:09 | 50.07292 | 8.64748 | 1916 ft | 167 kts | 250° |
| 2026-05-05 15:10 | 50.06889 | 8.63058 | 1711 ft | 166 kts | 250° |
| 2026-05-05 15:10 | 50.06492 | 8.61389 | 1472 ft | 160 kts | 250° |
| 2026-05-05 15:10 | 50.06123 | 8.59838 | 1276 ft | 146 kts | 250° |
| 2026-05-05 15:10 | 50.05784 | 8.58415 | 1066 ft | 135 kts | 250° |
| 2026-05-05 15:11 | 50.05581 | 8.57563 | 954 ft | 132 kts | 251° |
| 2026-05-05 15:11 | 50.05262 | 8.56225 | 803 ft | 132 kts | 252° |
| 2026-05-05 15:11 | 50.04942 | 8.54866 | 625 ft | 135 kts | 252° |
| 2026-05-05 15:11 | 50.04615 | 8.53510 | 449 ft | 134 kts | 250° |
| 2026-05-05 15:12 | 50.04295 | 8.52182 | 354 ft | 117 kts | 250° |
| 2026-05-05 15:12 | 50.04115 | 8.51417 | 334 ft | 48 kts | 249° |
| 2026-05-05 15:12 | 50.04042 | 8.51152 | 330 ft | 23 kts | 243° |
| 2026-05-05 15:12 | 50.03938 | 8.50954 | 327 ft | 25 kts | 219° |
| 2026-05-05 15:13 | 50.03849 | 8.50854 | 329 ft | 1 kts | 202° |
| 2026-05-05 15:13 | 50.03833 | 8.50846 | 330 ft | 7 kts | 195° |
| 2026-05-05 15:13 | 50.03794 | 8.50886 | 333 ft | 10 kts | 116° |
| 2026-05-05 15:13 | 50.03810 | 8.51043 | 336 ft | 21 kts | 69° |
| 2026-05-05 15:14 | 50.03865 | 8.51283 | 337 ft | 24 kts | 72° |
| 2026-05-05 15:14 | 50.03926 | 8.51528 | 334 ft | 25 kts | 69° |
| 2026-05-05 15:14 | 50.03985 | 8.51781 | 337 ft | 25 kts | 71° |
| 2026-05-05 15:14 | 50.04048 | 8.52034 | 347 ft | 25 kts | 69° |
| 2026-05-05 15:15 | 50.04108 | 8.52282 | 356 ft | 24 kts | 69° |
| 2026-05-05 15:15 | 50.04166 | 8.52524 | 359 ft | 23 kts | 70° |
| 2026-05-05 15:15 | 50.04220 | 8.52760 | 361 ft | 23 kts | 70° |
| 2026-05-05 15:15 | 50.04277 | 8.52991 | 364 ft | 23 kts | 69° |
| 2026-05-05 15:16 | 50.04327 | 8.53213 | 372 ft | 20 kts | 70° |
| 2026-05-05 15:16 | 50.04373 | 8.53393 | 378 ft | 17 kts | 69° |
| 2026-05-05 15:16 | 50.04401 | 8.53588 | 379 ft | 21 kts | 83° |
| 2026-05-05 15:16 | 50.04417 | 8.53835 | 379 ft | 24 kts | 84° |
| 2026-05-05 15:17 | 50.04433 | 8.54096 | 379 ft | 25 kts | 84° |
| 2026-05-05 15:17 | 50.04453 | 8.54369 | 377 ft | 27 kts | 85° |
| 2026-05-05 15:17 | 50.04400 | 8.54660 | 371 ft | 31 kts | 127° |
| 2026-05-05 15:17 | 50.04245 | 8.54810 | 360 ft | 26 kts | 162° |
| 2026-05-05 15:18 | 50.04068 | 8.54915 | 364 ft | 28 kts | 159° |
| 2026-05-05 15:18 | 50.03902 | 8.55011 | 362 ft | 16 kts | 159° |
| 2026-05-05 15:18 | 50.03857 | 8.55143 | 358 ft | 15 kts | 80° |
| 2026-05-05 15:18 | 50.03895 | 8.55306 | 362 ft | 17 kts | 70° |
| 2026-05-05 15:19 | 50.03938 | 8.55483 | 362 ft | 18 kts | 69° |
| 2026-05-05 15:19 | 50.03983 | 8.55676 | 362 ft | 20 kts | 70° |
| 2026-05-05 15:19 | 50.04031 | 8.55877 | 361 ft | 20 kts | 70° |
| 2026-05-05 15:19 | 50.04082 | 8.56091 | 365 ft | 21 kts | 69° |
| 2026-05-05 15:20 | 50.04134 | 8.56308 | 359 ft | 22 kts | 69° |
| 2026-05-05 15:20 | 50.04187 | 8.56528 | 366 ft | 22 kts | 70° |
| 2026-05-05 15:20 | 50.04241 | 8.56746 | 369 ft | 21 kts | 69° |
| 2026-05-05 15:20 | 50.04290 | 8.56962 | 370 ft | 22 kts | 71° |
| 2026-05-05 15:21 | 50.04342 | 8.57180 | 371 ft | 22 kts | 70° |
| 2026-05-05 15:21 | 50.04397 | 8.57409 | 372 ft | 23 kts | 69° |
| 2026-05-05 15:21 | 50.04455 | 8.57643 | 371 ft | 23 kts | 69° |
| 2026-05-05 15:21 | 50.04508 | 8.57865 | 373 ft | 13 kts | 70° |
| 2026-05-05 15:22 | 50.04519 | 8.57914 | 371 ft | 0 kts | 70° |
| 2026-05-05 15:22 | 50.04525 | 8.57941 | 369 ft | 7 kts | 70° |
| 2026-05-05 15:22 | 50.04569 | 8.58017 | 372 ft | 12 kts | 22° |
| 2026-05-05 15:23 | 50.04663 | 8.57984 | 369 ft | 16 kts | 339° |
| 2026-05-05 15:23 | 50.04775 | 8.57920 | 366 ft | 18 kts | 339° |
| 2026-05-05 15:23 | 50.04862 | 8.57790 | 368 ft | 18 kts | 293° |
| 2026-05-05 15:23 | 50.04886 | 8.57678 | 367 ft | 2 kts | 266° |
| 2026-05-05 15:24 | 50.04870 | 8.57649 | 369 ft | 6 kts | 224° |
| 2026-05-05 15:24 | 50.04843 | 8.57628 | 367 ft | 3 kts | 201° |
| 2026-05-05 15:24 | 50.04831 | 8.57621 | 366 ft | 1 kts | 202° |
| 2026-05-05 15:24 | 50.04830 | 8.57620 | 366 ft | 0 kts | 202° |